sensor_id;sensor_type;location;lat;lon;timestamp;P1;durP1;ratioP1;P2;durP2;ratioP2
15814;SDS011;8008;50.024;8.172;2023-08-20T03:02:39;10.90;;;7.60;;
15814;SDS011;8008;50.024;8.172;2023-08-20T03:05:09;10.35;;;7.30;;
15814;SDS011;8008;50.024;8.172;2023-08-20T03:07:37;8.85;;;7.70;;
15814;SDS011;8008;50.024;8.172;2023-08-20T03:10:06;10.85;;;7.90;;
15814;SDS011;8008;50.024;8.172;2023-08-20T03:12:34;8.77;;;7.75;;
15814;SDS011;8008;50.024;8.172;2023-08-20T03:15:02;10.45;;;7.88;;
15814;SDS011;8008;50.024;8.172;2023-08-20T03:17:30;10.48;;;7.70;;
15814;SDS011;8008;50.024;8.172;2023-08-20T03:20:00;8.35;;;7.53;;
15814;SDS011;8008;50.024;8.172;2023-08-20T03:22:30;10.30;;;7.50;;
15814;SDS011;8008;50.024;8.172;2023-08-20T03:24:58;11.38;;;8.00;;
15814;SDS011;8008;50.024;8.172;2023-08-20T03:27:26;9.20;;;6.88;;
15814;SDS011;8008;50.024;8.172;2023-08-20T03:29:54;9.45;;;7.35;;
15814;SDS011;8008;50.024;8.172;2023-08-20T03:32:24;9.18;;;6.97;;
15814;SDS011;8008;50.024;8.172;2023-08-20T03:34:52;8.85;;;7.25;;
15814;SDS011;8008;50.024;8.172;2023-08-20T03:37:23;10.23;;;6.93;;
15814;SDS011;8008;50.024;8.172;2023-08-20T03:39:51;9.30;;;7.13;;
15814;SDS011;8008;50.024;8.172;2023-08-20T03:42:19;9.57;;;8.25;;
15814;SDS011;8008;50.024;8.172;2023-08-20T03:44:47;7.88;;;7.07;;
15814;SDS011;8008;50.024;8.172;2023-08-20T03:47:15;11.80;;;7.63;;
15814;SDS011;8008;50.024;8.172;2023-08-20T03:49:46;9.80;;;7.35;;
15814;SDS011;8008;50.024;8.172;2023-08-20T03:52:15;9.75;;;7.55;;
15814;SDS011;8008;50.024;8.172;2023-08-20T03:54:44;9.77;;;6.90;;
15814;SDS011;8008;50.024;8.172;2023-08-20T03:57:14;9.65;;;6.63;;
15814;SDS011;8008;50.024;8.172;2023-08-20T03:59:43;10.45;;;7.03;;
15814;SDS011;8008;50.024;8.172;2023-08-20T04:02:12;9.38;;;6.60;;
15814;SDS011;8008;50.024;8.172;2023-08-20T04:04:40;7.30;;;6.60;;
15814;SDS011;8008;50.024;8.172;2023-08-20T04:07:08;8.88;;;7.22;;
15814;SDS011;8008;50.024;8.172;2023-08-20T04:09:36;7.88;;;7.07;;
15814;SDS011;8008;50.024;8.172;2023-08-20T04:12:06;7.85;;;7.05;;
15814;SDS011;8008;50.024;8.172;2023-08-20T04:14:36;14.63;;;7.85;;
15814;SDS011;8008;50.024;8.172;2023-08-20T04:17:04;9.43;;;7.68;;
15814;SDS011;8008;50.024;8.172;2023-08-20T04:19:32;8.70;;;7.88;;
15814;SDS011;8008;50.024;8.172;2023-08-20T04:22:00;8.43;;;7.22;;
15814;SDS011;8008;50.024;8.172;2023-08-20T04:24:28;7.55;;;6.07;;
15814;SDS011;8008;50.024;8.172;2023-08-20T04:26:56;7.00;;;6.30;;
15814;SDS011;8008;50.024;8.172;2023-08-20T04:29:27;7.72;;;6.93;;
15814;SDS011;8008;50.024;8.172;2023-08-20T04:31:55;8.30;;;7.40;;
15814;SDS011;8008;50.024;8.172;2023-08-20T04:34:23;8.75;;;7.57;;
15814;SDS011;8008;50.024;8.172;2023-08-20T04:36:54;8.43;;;7.47;;
15814;SDS011;8008;50.024;8.172;2023-08-20T04:39:22;10.02;;;7.82;;
15814;SDS011;8008;50.024;8.172;2023-08-20T04:41:52;8.45;;;7.65;;
15814;SDS011;8008;50.024;8.172;2023-08-20T04:44:23;10.90;;;7.88;;
15814;SDS011;8008;50.024;8.172;2023-08-20T04:46:54;10.77;;;8.15;;
15814;SDS011;8008;50.024;8.172;2023-08-20T04:49:24;10.35;;;8.25;;
15814;SDS011;8008;50.024;8.172;2023-08-20T04:51:54;9.68;;;8.50;;
15814;SDS011;8008;50.024;8.172;2023-08-20T04:54:22;8.95;;;7.95;;
15814;SDS011;8008;50.024;8.172;2023-08-20T04:56:50;11.55;;;8.30;;
15814;SDS011;8008;50.024;8.172;2023-08-20T04:59:21;9.02;;;8.10;;
15814;SDS011;8008;50.024;8.172;2023-08-20T05:01:50;10.23;;;7.82;;
15814;SDS011;8008;50.024;8.172;2023-08-20T05:04:27;8.32;;;7.53;;
15814;SDS011;8008;50.024;8.172;2023-08-20T05:06:55;9.27;;;7.70;;
15814;SDS011;8008;50.024;8.172;2023-08-20T05:09:23;10.73;;;8.30;;
15814;SDS011;8008;50.024;8.172;2023-08-20T05:11:51;11.07;;;8.52;;
15814;SDS011;8008;50.024;8.172;2023-08-20T05:14:19;12.02;;;8.38;;
15814;SDS011;8008;50.024;8.172;2023-08-20T05:16:47;11.52;;;8.80;;
15814;SDS011;8008;50.024;8.172;2023-08-20T05:19:15;12.82;;;8.57;;
15814;SDS011;8008;50.024;8.172;2023-08-20T05:21:44;9.40;;;7.72;;
15814;SDS011;8008;50.024;8.172;2023-08-20T05:24:12;10.05;;;8.48;;
15814;SDS011;8008;50.024;8.172;2023-08-20T05:26:40;9.35;;;8.38;;
15814;SDS011;8008;50.024;8.172;2023-08-20T05:29:08;10.02;;;8.25;;
15814;SDS011;8008;50.024;8.172;2023-08-20T05:31:37;9.70;;;8.65;;
15814;SDS011;8008;50.024;8.172;2023-08-20T05:34:05;11.57;;;8.18;;
15814;SDS011;8008;50.024;8.172;2023-08-20T05:36:34;9.75;;;8.27;;
15814;SDS011;8008;50.024;8.172;2023-08-20T05:39:03;9.63;;;8.02;;
15814;SDS011;8008;50.024;8.172;2023-08-20T05:41:31;9.73;;;8.10;;
15814;SDS011;8008;50.024;8.172;2023-08-20T05:43:59;11.48;;;8.48;;
15814;SDS011;8008;50.024;8.172;2023-08-20T05:46:27;10.27;;;8.55;;
15814;SDS011;8008;50.024;8.172;2023-08-20T05:48:55;12.50;;;8.25;;
15814;SDS011;8008;50.024;8.172;2023-08-20T05:51:24;9.57;;;7.88;;
15814;SDS011;8008;50.024;8.172;2023-08-20T05:53:52;10.73;;;8.30;;
15814;SDS011;8008;50.024;8.172;2023-08-20T05:56:21;10.27;;;8.20;;
15814;SDS011;8008;50.024;8.172;2023-08-20T05:58:49;9.88;;;7.80;;
15814;SDS011;8008;50.024;8.172;2023-08-20T06:01:18;9.18;;;8.20;;
15814;SDS011;8008;50.024;8.172;2023-08-20T06:03:46;11.00;;;8.18;;
15814;SDS011;8008;50.024;8.172;2023-08-20T06:06:14;10.77;;;8.13;;
15814;SDS011;8008;50.024;8.172;2023-08-20T06:08:42;10.63;;;8.45;;
15814;SDS011;8008;50.024;8.172;2023-08-20T06:11:29;8.57;;;7.68;;
15814;SDS011;8008;50.024;8.172;2023-08-20T06:13:57;10.35;;;8.15;;
15814;SDS011;8008;50.024;8.172;2023-08-20T06:16:25;9.73;;;7.93;;
15814;SDS011;8008;50.024;8.172;2023-08-20T06:18:53;8.63;;;7.57;;
15814;SDS011;8008;50.024;8.172;2023-08-20T06:21:22;8.98;;;6.97;;
15814;SDS011;8008;50.024;8.172;2023-08-20T06:23:50;11.27;;;7.22;;
15814;SDS011;8008;50.024;8.172;2023-08-20T06:26:18;10.38;;;7.40;;
15814;SDS011;8008;50.024;8.172;2023-08-20T06:28:47;9.07;;;7.53;;
15814;SDS011;8008;50.024;8.172;2023-08-20T06:31:15;10.45;;;7.85;;
15814;SDS011;8008;50.024;8.172;2023-08-20T06:33:43;8.93;;;6.85;;
15814;SDS011;8008;50.024;8.172;2023-08-20T06:36:11;7.38;;;6.57;;
15814;SDS011;8008;50.024;8.172;2023-08-20T06:38:39;8.02;;;6.30;;
15814;SDS011;8008;50.024;8.172;2023-08-20T06:41:07;7.35;;;6.65;;
15814;SDS011;8008;50.024;8.172;2023-08-20T06:43:35;8.48;;;6.88;;
15814;SDS011;8008;50.024;8.172;2023-08-20T06:46:04;9.05;;;6.78;;
15814;SDS011;8008;50.024;8.172;2023-08-20T06:48:32;9.32;;;6.93;;
15814;SDS011;8008;50.024;8.172;2023-08-20T06:51:07;8.57;;;6.70;;
15814;SDS011;8008;50.024;8.172;2023-08-20T06:53:36;8.02;;;6.60;;
15814;SDS011;8008;50.024;8.172;2023-08-20T06:56:04;7.88;;;6.78;;
15814;SDS011;8008;50.024;8.172;2023-08-20T06:58:32;6.88;;;6.28;;
15814;SDS011;8008;50.024;8.172;2023-08-20T07:01:00;7.35;;;6.65;;
15814;SDS011;8008;50.024;8.172;2023-08-20T07:03:37;6.50;;;5.80;;
15814;SDS011;8008;50.024;8.172;2023-08-20T07:06:06;8.80;;;6.90;;
15814;SDS011;8008;50.024;8.172;2023-08-20T07:08:35;7.05;;;5.72;;
15814;SDS011;8008;50.024;8.172;2023-08-20T07:11:05;6.70;;;6.10;;
15814;SDS011;8008;50.024;8.172;2023-08-20T07:13:32;8.63;;;5.68;;
15814;SDS011;8008;50.024;8.172;2023-08-20T07:16:00;6.60;;;5.63;;
15814;SDS011;8008;50.024;8.172;2023-08-20T07:18:29;7.93;;;5.25;;
15814;SDS011;8008;50.024;8.172;2023-08-20T07:20:58;6.30;;;5.70;;
15814;SDS011;8008;50.024;8.172;2023-08-20T07:23:26;7.47;;;5.60;;
15814;SDS011;8008;50.024;8.172;2023-08-20T07:26:03;5.93;;;5.28;;
15814;SDS011;8008;50.024;8.172;2023-08-20T07:28:32;6.60;;;6.00;;
15814;SDS011;8008;50.024;8.172;2023-08-20T07:31:18;7.63;;;5.95;;
15814;SDS011;8008;50.024;8.172;2023-08-20T07:33:46;6.63;;;5.97;;
15814;SDS011;8008;50.024;8.172;2023-08-20T07:36:16;7.43;;;6.22;;
15814;SDS011;8008;50.024;8.172;2023-08-20T07:38:44;9.57;;;6.88;;
15814;SDS011;8008;50.024;8.172;2023-08-20T07:41:12;6.78;;;6.07;;
15814;SDS011;8008;50.024;8.172;2023-08-20T07:43:41;7.10;;;6.18;;
15814;SDS011;8008;50.024;8.172;2023-08-20T07:46:09;7.30;;;5.68;;
15814;SDS011;8008;50.024;8.172;2023-08-20T07:48:37;7.03;;;6.32;;
15814;SDS011;8008;50.024;8.172;2023-08-20T07:51:06;8.20;;;6.70;;
15814;SDS011;8008;50.024;8.172;2023-08-20T07:53:35;7.78;;;6.60;;
15814;SDS011;8008;50.024;8.172;2023-08-20T07:56:04;8.35;;;7.10;;
15814;SDS011;8008;50.024;8.172;2023-08-20T07:58:32;7.25;;;6.55;;
15814;SDS011;8008;50.024;8.172;2023-08-20T08:01:00;8.70;;;6.78;;
15814;SDS011;8008;50.024;8.172;2023-08-20T08:03:28;7.75;;;6.57;;
15814;SDS011;8008;50.024;8.172;2023-08-20T08:05:56;7.40;;;6.63;;
15814;SDS011;8008;50.024;8.172;2023-08-20T08:08:24;7.43;;;6.47;;
15814;SDS011;8008;50.024;8.172;2023-08-20T08:10:53;7.72;;;6.70;;
15814;SDS011;8008;50.024;8.172;2023-08-20T08:13:22;7.65;;;6.68;;
15814;SDS011;8008;50.024;8.172;2023-08-20T08:15:50;8.10;;;7.00;;
15814;SDS011;8008;50.024;8.172;2023-08-20T08:18:18;9.02;;;7.20;;
15814;SDS011;8008;50.024;8.172;2023-08-20T08:20:47;9.50;;;6.78;;
15814;SDS011;8008;50.024;8.172;2023-08-20T08:23:15;7.82;;;6.97;;
15814;SDS011;8008;50.024;8.172;2023-08-20T08:25:43;8.30;;;6.78;;
15814;SDS011;8008;50.024;8.172;2023-08-20T08:28:12;7.45;;;6.72;;
15814;SDS011;8008;50.024;8.172;2023-08-20T08:30:40;7.30;;;6.53;;
15814;SDS011;8008;50.024;8.172;2023-08-20T08:33:08;9.18;;;6.43;;
15814;SDS011;8008;50.024;8.172;2023-08-20T08:35:36;8.38;;;6.90;;
15814;SDS011;8008;50.024;8.172;2023-08-20T08:38:04;6.85;;;6.15;;
15814;SDS011;8008;50.024;8.172;2023-08-20T08:40:32;7.03;;;6.32;;
15814;SDS011;8008;50.024;8.172;2023-08-20T08:43:00;6.93;;;6.32;;
15814;SDS011;8008;50.024;8.172;2023-08-20T08:45:31;7.15;;;6.50;;
15814;SDS011;8008;50.024;8.172;2023-08-20T08:48:01;7.25;;;6.55;;
15814;SDS011;8008;50.024;8.172;2023-08-20T08:50:30;7.75;;;6.22;;
15814;SDS011;8008;50.024;8.172;2023-08-20T08:52:59;7.05;;;6.35;;
15814;SDS011;8008;50.024;8.172;2023-08-20T08:55:27;7.80;;;6.32;;
15814;SDS011;8008;50.024;8.172;2023-08-20T08:57:55;7.07;;;6.38;;
15814;SDS011;8008;50.024;8.172;2023-08-20T09:00:23;6.47;;;5.80;;
15814;SDS011;8008;50.024;8.172;2023-08-20T09:02:52;6.97;;;6.30;;
15814;SDS011;8008;50.024;8.172;2023-08-20T09:05:20;6.93;;;6.28;;
15814;SDS011;8008;50.024;8.172;2023-08-20T09:07:49;7.18;;;5.72;;
15814;SDS011;8008;50.024;8.172;2023-08-20T09:10:25;6.35;;;5.70;;
15814;SDS011;8008;50.024;8.172;2023-08-20T09:12:54;7.40;;;5.80;;
15814;SDS011;8008;50.024;8.172;2023-08-20T09:15:33;7.82;;;5.90;;
15814;SDS011;8008;50.024;8.172;2023-08-20T09:18:03;8.00;;;6.03;;
15814;SDS011;8008;50.024;8.172;2023-08-20T09:20:34;6.35;;;5.72;;
15814;SDS011;8008;50.024;8.172;2023-08-20T09:23:02;7.80;;;5.93;;
15814;SDS011;8008;50.024;8.172;2023-08-20T09:25:30;7.10;;;5.70;;
15814;SDS011;8008;50.024;8.172;2023-08-20T09:28:02;5.85;;;5.25;;
15814;SDS011;8008;50.024;8.172;2023-08-20T09:30:30;7.55;;;5.43;;
15814;SDS011;8008;50.024;8.172;2023-08-20T09:33:04;5.30;;;4.80;;
15814;SDS011;8008;50.024;8.172;2023-08-20T09:35:35;7.20;;;5.68;;
15814;SDS011;8008;50.024;8.172;2023-08-20T09:38:03;5.82;;;5.25;;
15814;SDS011;8008;50.024;8.172;2023-08-20T09:40:31;5.57;;;5.07;;
15814;SDS011;8008;50.024;8.172;2023-08-20T09:42:59;5.90;;;5.07;;
15814;SDS011;8008;50.024;8.172;2023-08-20T09:45:29;5.95;;;5.18;;
15814;SDS011;8008;50.024;8.172;2023-08-20T09:47:57;6.20;;;5.57;;
15814;SDS011;8008;50.024;8.172;2023-08-20T09:50:28;5.72;;;5.05;;
15814;SDS011;8008;50.024;8.172;2023-08-20T09:53:03;5.50;;;5.00;;
15814;SDS011;8008;50.024;8.172;2023-08-20T09:55:34;5.53;;;4.90;;
15814;SDS011;8008;50.024;8.172;2023-08-20T09:58:03;7.13;;;5.15;;
15814;SDS011;8008;50.024;8.172;2023-08-20T10:00:32;5.63;;;5.13;;
15814;SDS011;8008;50.024;8.172;2023-08-20T10:03:01;6.13;;;5.28;;
15814;SDS011;8008;50.024;8.172;2023-08-20T10:05:31;5.60;;;4.97;;
15814;SDS011;8008;50.024;8.172;2023-08-20T10:07:59;5.63;;;5.13;;
15814;SDS011;8008;50.024;8.172;2023-08-20T10:10:28;5.40;;;4.90;;
15814;SDS011;8008;50.024;8.172;2023-08-20T10:12:57;5.90;;;4.80;;
15814;SDS011;8008;50.024;8.172;2023-08-20T10:15:25;6.15;;;5.38;;
15814;SDS011;8008;50.024;8.172;2023-08-20T10:17:55;5.93;;;5.20;;
15814;SDS011;8008;50.024;8.172;2023-08-20T10:20:24;5.70;;;4.82;;
15814;SDS011;8008;50.024;8.172;2023-08-20T10:23:01;5.82;;;4.93;;
15814;SDS011;8008;50.024;8.172;2023-08-20T10:25:30;5.85;;;5.25;;
15814;SDS011;8008;50.024;8.172;2023-08-20T10:28:10;5.85;;;4.95;;
15814;SDS011;8008;50.024;8.172;2023-08-20T10:33:33;5.63;;;5.13;;
15814;SDS011;8008;50.024;8.172;2023-08-20T10:36:08;5.60;;;5.10;;
15814;SDS011;8008;50.024;8.172;2023-08-20T10:38:39;6.07;;;5.57;;
15814;SDS011;8008;50.024;8.172;2023-08-20T10:41:07;6.43;;;5.50;;
15814;SDS011;8008;50.024;8.172;2023-08-20T10:43:36;7.00;;;5.50;;
15814;SDS011;8008;50.024;8.172;2023-08-20T10:46:13;6.45;;;5.32;;
15814;SDS011;8008;50.024;8.172;2023-08-20T10:48:43;7.78;;;5.32;;
15814;SDS011;8008;50.024;8.172;2023-08-20T10:51:14;7.93;;;5.55;;
15814;SDS011;8008;50.024;8.172;2023-08-20T10:53:48;7.80;;;5.28;;
15814;SDS011;8008;50.024;8.172;2023-08-20T10:56:42;5.22;;;4.72;;
15814;SDS011;8008;50.024;8.172;2023-08-20T10:59:13;6.90;;;5.00;;
15814;SDS011;8008;50.024;8.172;2023-08-20T11:01:43;5.82;;;5.00;;
15814;SDS011;8008;50.024;8.172;2023-08-20T11:04:12;5.63;;;4.30;;
15814;SDS011;8008;50.024;8.172;2023-08-20T11:06:41;6.60;;;4.90;;
15814;SDS011;8008;50.024;8.172;2023-08-20T11:09:11;5.90;;;4.40;;
15814;SDS011;8008;50.024;8.172;2023-08-20T11:11:39;6.35;;;4.68;;
15814;SDS011;8008;50.024;8.172;2023-08-20T11:14:12;5.07;;;4.57;;
15814;SDS011;8008;50.024;8.172;2023-08-20T11:16:41;5.05;;;4.55;;
15814;SDS011;8008;50.024;8.172;2023-08-20T11:19:09;5.70;;;4.30;;
15814;SDS011;8008;50.024;8.172;2023-08-20T11:21:38;6.57;;;4.72;;
15814;SDS011;8008;50.024;8.172;2023-08-20T11:24:07;4.60;;;4.10;;
15814;SDS011;8008;50.024;8.172;2023-08-20T11:26:38;6.45;;;4.35;;
15814;SDS011;8008;50.024;8.172;2023-08-20T11:29:07;7.57;;;4.10;;
15814;SDS011;8008;50.024;8.172;2023-08-20T11:31:35;5.60;;;3.85;;
15814;SDS011;8008;50.024;8.172;2023-08-20T11:34:05;4.50;;;4.10;;
15814;SDS011;8008;50.024;8.172;2023-08-20T11:36:34;5.35;;;3.97;;
15814;SDS011;8008;50.024;8.172;2023-08-20T11:39:02;4.60;;;4.13;;
15814;SDS011;8008;50.024;8.172;2023-08-20T11:41:30;4.70;;;4.30;;
15814;SDS011;8008;50.024;8.172;2023-08-20T11:44:00;4.50;;;4.10;;
15814;SDS011;8008;50.024;8.172;2023-08-20T11:46:29;5.85;;;4.40;;
15814;SDS011;8008;50.024;8.172;2023-08-20T11:49:01;6.05;;;4.45;;
15814;SDS011;8008;50.024;8.172;2023-08-20T11:51:34;5.72;;;4.43;;
15814;SDS011;8008;50.024;8.172;2023-08-20T11:54:04;6.30;;;5.00;;
15814;SDS011;8008;50.024;8.172;2023-08-20T11:56:32;5.07;;;4.40;;
15814;SDS011;8008;50.024;8.172;2023-08-20T11:59:02;6.32;;;4.43;;
15814;SDS011;8008;50.024;8.172;2023-08-20T12:01:30;5.45;;;4.70;;
15814;SDS011;8008;50.024;8.172;2023-08-20T12:04:02;5.25;;;4.28;;
15814;SDS011;8008;50.024;8.172;2023-08-20T12:06:32;5.00;;;4.50;;
15814;SDS011;8008;50.024;8.172;2023-08-20T12:09:02;5.57;;;4.13;;
15814;SDS011;8008;50.024;8.172;2023-08-20T12:11:47;6.47;;;4.20;;
15814;SDS011;8008;50.024;8.172;2023-08-20T12:14:18;6.80;;;4.32;;
15814;SDS011;8008;50.024;8.172;2023-08-20T12:16:46;5.47;;;4.63;;
15814;SDS011;8008;50.024;8.172;2023-08-20T12:19:14;6.28;;;4.40;;
15814;SDS011;8008;50.024;8.172;2023-08-20T12:21:45;6.82;;;4.10;;
15814;SDS011;8008;50.024;8.172;2023-08-20T12:24:13;4.30;;;3.90;;
15814;SDS011;8008;50.024;8.172;2023-08-20T12:26:42;4.78;;;4.10;;
15814;SDS011;8008;50.024;8.172;2023-08-20T12:29:10;4.95;;;3.92;;
15814;SDS011;8008;50.024;8.172;2023-08-20T12:31:39;5.57;;;3.88;;
15814;SDS011;8008;50.024;8.172;2023-08-20T12:34:08;5.22;;;3.83;;
15814;SDS011;8008;50.024;8.172;2023-08-20T12:36:36;4.55;;;3.55;;
15814;SDS011;8008;50.024;8.172;2023-08-20T12:39:04;4.85;;;4.10;;
15814;SDS011;8008;50.024;8.172;2023-08-20T12:41:32;5.38;;;4.28;;
15814;SDS011;8008;50.024;8.172;2023-08-20T12:44:02;5.15;;;4.13;;
15814;SDS011;8008;50.024;8.172;2023-08-20T12:46:30;4.47;;;3.72;;
15814;SDS011;8008;50.024;8.172;2023-08-20T12:49:00;4.28;;;3.58;;
15814;SDS011;8008;50.024;8.172;2023-08-20T12:51:28;4.38;;;3.90;;
15814;SDS011;8008;50.024;8.172;2023-08-20T12:53:56;5.60;;;3.90;;
15814;SDS011;8008;50.024;8.172;2023-08-20T12:56:23;4.65;;;4.20;;
15814;SDS011;8008;50.024;8.172;2023-08-20T12:58:51;5.57;;;4.53;;
15814;SDS011;8008;50.024;8.172;2023-08-20T13:01:19;5.63;;;4.20;;
15814;SDS011;8008;50.024;8.172;2023-08-20T13:03:48;4.70;;;4.30;;
15814;SDS011;8008;50.024;8.172;2023-08-20T13:06:18;5.32;;;4.78;;
15814;SDS011;8008;50.024;8.172;2023-08-20T13:08:47;6.60;;;4.53;;
15814;SDS011;8008;50.024;8.172;2023-08-20T13:11:16;4.60;;;4.18;;
15814;SDS011;8008;50.024;8.172;2023-08-20T13:13:47;7.63;;;4.40;;
15814;SDS011;8008;50.024;8.172;2023-08-20T13:16:17;5.55;;;4.30;;
15814;SDS011;8008;50.024;8.172;2023-08-20T13:18:46;4.88;;;4.22;;
15814;SDS011;8008;50.024;8.172;2023-08-20T13:21:14;4.35;;;3.78;;
15814;SDS011;8008;50.024;8.172;2023-08-20T13:23:44;4.25;;;3.85;;
15814;SDS011;8008;50.024;8.172;2023-08-20T13:26:12;4.68;;;4.25;;
15814;SDS011;8008;50.024;8.172;2023-08-20T13:28:39;4.72;;;4.20;;
15814;SDS011;8008;50.024;8.172;2023-08-20T13:31:07;5.28;;;4.30;;
15814;SDS011;8008;50.024;8.172;2023-08-20T13:33:35;4.80;;;4.07;;
15814;SDS011;8008;50.024;8.172;2023-08-20T13:36:03;4.43;;;4.00;;
15814;SDS011;8008;50.024;8.172;2023-08-20T13:38:33;3.88;;;3.55;;
15814;SDS011;8008;50.024;8.172;2023-08-20T13:41:02;5.22;;;4.00;;
15814;SDS011;8008;50.024;8.172;2023-08-20T13:43:30;4.13;;;3.70;;
15814;SDS011;8008;50.024;8.172;2023-08-20T13:45:58;6.30;;;3.58;;
15814;SDS011;8008;50.024;8.172;2023-08-20T13:48:27;4.13;;;3.28;;
15814;SDS011;8008;50.024;8.172;2023-08-20T13:50:54;3.78;;;3.30;;
15814;SDS011;8008;50.024;8.172;2023-08-20T13:53:22;4.35;;;2.80;;
15814;SDS011;8008;50.024;8.172;2023-08-20T13:55:50;3.65;;;2.90;;
15814;SDS011;8008;50.024;8.172;2023-08-20T13:58:20;3.80;;;3.08;;
15814;SDS011;8008;50.024;8.172;2023-08-20T14:00:48;5.00;;;3.25;;
15814;SDS011;8008;50.024;8.172;2023-08-20T14:03:16;4.10;;;3.70;;
15814;SDS011;8008;50.024;8.172;2023-08-20T14:05:44;3.65;;;3.33;;
15814;SDS011;8008;50.024;8.172;2023-08-20T14:08:12;4.18;;;3.50;;
15814;SDS011;8008;50.024;8.172;2023-08-20T14:10:39;4.13;;;3.38;;
15814;SDS011;8008;50.024;8.172;2023-08-20T14:13:07;5.40;;;3.05;;
15814;SDS011;8008;50.024;8.172;2023-08-20T14:15:37;3.63;;;3.33;;
15814;SDS011;8008;50.024;8.172;2023-08-20T14:18:05;5.68;;;3.10;;
15814;SDS011;8008;50.024;8.172;2023-08-20T14:20:35;5.00;;;3.40;;
15814;SDS011;8008;50.024;8.172;2023-08-20T14:23:03;3.75;;;3.38;;
15814;SDS011;8008;50.024;8.172;2023-08-20T14:25:31;3.90;;;3.17;;
15814;SDS011;8008;50.024;8.172;2023-08-20T14:27:59;5.53;;;3.67;;
15814;SDS011;8008;50.024;8.172;2023-08-20T14:30:27;4.97;;;3.53;;
15814;SDS011;8008;50.024;8.172;2023-08-20T14:32:57;4.25;;;3.65;;
15814;SDS011;8008;50.024;8.172;2023-08-20T14:35:25;3.78;;;3.40;;
15814;SDS011;8008;50.024;8.172;2023-08-20T14:37:53;5.60;;;4.00;;
15814;SDS011;8008;50.024;8.172;2023-08-20T14:40:21;5.50;;;3.53;;
15814;SDS011;8008;50.024;8.172;2023-08-20T14:42:49;4.78;;;3.72;;
15814;SDS011;8008;50.024;8.172;2023-08-20T14:45:17;3.80;;;3.50;;
15814;SDS011;8008;50.024;8.172;2023-08-20T14:47:45;4.97;;;3.80;;
15814;SDS011;8008;50.024;8.172;2023-08-20T14:50:14;4.85;;;3.95;;
15814;SDS011;8008;50.024;8.172;2023-08-20T14:52:42;4.22;;;3.55;;
15814;SDS011;8008;50.024;8.172;2023-08-20T14:55:10;3.45;;;3.15;;
15814;SDS011;8008;50.024;8.172;2023-08-20T14:57:38;5.25;;;3.70;;
15814;SDS011;8008;50.024;8.172;2023-08-20T15:00:17;3.60;;;3.30;;
15814;SDS011;8008;50.024;8.172;2023-08-20T15:02:49;3.70;;;3.22;;
15814;SDS011;8008;50.024;8.172;2023-08-20T15:05:18;3.50;;;3.20;;
15814;SDS011;8008;50.024;8.172;2023-08-20T15:07:47;4.47;;;3.58;;
15814;SDS011;8008;50.024;8.172;2023-08-20T15:10:15;4.00;;;3.40;;
15814;SDS011;8008;50.024;8.172;2023-08-20T15:12:43;3.10;;;2.90;;
15814;SDS011;8008;50.024;8.172;2023-08-20T15:15:11;3.40;;;2.97;;
15814;SDS011;8008;50.024;8.172;2023-08-20T15:17:39;3.40;;;3.10;;
15814;SDS011;8008;50.024;8.172;2023-08-20T15:20:08;3.22;;;2.75;;
15814;SDS011;8008;50.024;8.172;2023-08-20T15:22:39;4.60;;;3.30;;
15814;SDS011;8008;50.024;8.172;2023-08-20T15:25:07;3.40;;;3.10;;
15814;SDS011;8008;50.024;8.172;2023-08-20T15:27:37;4.25;;;3.28;;
15814;SDS011;8008;50.024;8.172;2023-08-20T15:30:06;4.43;;;3.40;;
15814;SDS011;8008;50.024;8.172;2023-08-20T15:32:35;4.13;;;3.10;;
15814;SDS011;8008;50.024;8.172;2023-08-20T15:35:03;4.10;;;3.10;;
15814;SDS011;8008;50.024;8.172;2023-08-20T15:37:33;3.22;;;2.92;;
15814;SDS011;8008;50.024;8.172;2023-08-20T15:40:03;3.95;;;3.40;;
15814;SDS011;8008;50.024;8.172;2023-08-20T15:42:35;3.50;;;3.20;;
15814;SDS011;8008;50.024;8.172;2023-08-20T15:45:03;4.30;;;3.75;;
15814;SDS011;8008;50.024;8.172;2023-08-20T15:47:32;6.00;;;3.70;;
15814;SDS011;8008;50.024;8.172;2023-08-20T15:50:01;3.95;;;3.65;;
15814;SDS011;8008;50.024;8.172;2023-08-20T15:52:29;7.65;;;3.65;;
15814;SDS011;8008;50.024;8.172;2023-08-20T15:54:56;4.18;;;3.78;;
15814;SDS011;8008;50.024;8.172;2023-08-20T15:57:26;4.85;;;4.00;;
15814;SDS011;8008;50.024;8.172;2023-08-20T15:59:55;4.20;;;3.80;;
15814;SDS011;8008;50.024;8.172;2023-08-20T16:02:26;5.65;;;4.10;;
15814;SDS011;8008;50.024;8.172;2023-08-20T16:04:54;4.82;;;3.90;;
15814;SDS011;8008;50.024;8.172;2023-08-20T16:07:22;4.75;;;4.20;;
15814;SDS011;8008;50.024;8.172;2023-08-20T16:09:49;4.45;;;4.05;;
15814;SDS011;8008;50.024;8.172;2023-08-20T16:12:17;4.32;;;3.92;;
15814;SDS011;8008;50.024;8.172;2023-08-20T16:14:47;4.68;;;4.10;;
15814;SDS011;8008;50.024;8.172;2023-08-20T16:17:14;4.90;;;4.20;;
15814;SDS011;8008;50.024;8.172;2023-08-20T16:19:42;4.32;;;3.95;;
15814;SDS011;8008;50.024;8.172;2023-08-20T16:22:11;5.93;;;3.85;;
15814;SDS011;8008;50.024;8.172;2023-08-20T16:24:39;5.20;;;4.18;;
15814;SDS011;8008;50.024;8.172;2023-08-20T16:27:07;5.43;;;4.03;;
15814;SDS011;8008;50.024;8.172;2023-08-20T16:29:35;6.50;;;4.20;;
15814;SDS011;8008;50.024;8.172;2023-08-20T16:32:04;5.53;;;4.35;;
15814;SDS011;8008;50.024;8.172;2023-08-20T16:34:32;6.15;;;4.22;;
15814;SDS011;8008;50.024;8.172;2023-08-20T16:37:01;4.78;;;4.13;;
15814;SDS011;8008;50.024;8.172;2023-08-20T16:39:29;7.43;;;4.63;;
15814;SDS011;8008;50.024;8.172;2023-08-20T16:42:00;6.55;;;4.38;;
15814;SDS011;8008;50.024;8.172;2023-08-20T16:44:28;7.60;;;5.00;;
15814;SDS011;8008;50.024;8.172;2023-08-20T16:46:55;7.53;;;4.93;;
15814;SDS011;8008;50.024;8.172;2023-08-20T16:49:25;7.15;;;5.13;;
15814;SDS011;8008;50.024;8.172;2023-08-20T16:51:53;6.15;;;4.53;;
15814;SDS011;8008;50.024;8.172;2023-08-20T16:54:21;8.20;;;4.95;;
15814;SDS011;8008;50.024;8.172;2023-08-20T16:56:49;7.68;;;5.20;;
15814;SDS011;8008;50.024;8.172;2023-08-20T16:59:16;5.28;;;4.20;;
15814;SDS011;8008;50.024;8.172;2023-08-20T17:01:44;5.88;;;4.28;;
15814;SDS011;8008;50.024;8.172;2023-08-20T17:04:13;5.72;;;4.88;;
15814;SDS011;8008;50.024;8.172;2023-08-20T17:06:43;4.88;;;3.85;;
15814;SDS011;8008;50.024;8.172;2023-08-20T17:09:11;4.65;;;4.25;;
15814;SDS011;8008;50.024;8.172;2023-08-20T17:11:41;6.65;;;4.45;;
15814;SDS011;8008;50.024;8.172;2023-08-20T17:14:10;6.57;;;4.28;;
15814;SDS011;8008;50.024;8.172;2023-08-20T17:16:38;6.93;;;4.78;;
15814;SDS011;8008;50.024;8.172;2023-08-20T17:19:06;7.85;;;4.60;;
15814;SDS011;8008;50.024;8.172;2023-08-20T17:21:34;5.70;;;4.65;;
15814;SDS011;8008;50.024;8.172;2023-08-20T17:24:03;5.85;;;4.60;;
15814;SDS011;8008;50.024;8.172;2023-08-20T17:26:32;5.10;;;4.22;;
15814;SDS011;8008;50.024;8.172;2023-08-20T17:28:59;5.13;;;4.18;;
15814;SDS011;8008;50.024;8.172;2023-08-20T17:31:28;5.45;;;4.47;;
15814;SDS011;8008;50.024;8.172;2023-08-20T17:33:56;7.00;;;4.85;;
15814;SDS011;8008;50.024;8.172;2023-08-20T17:36:24;7.85;;;4.80;;
15814;SDS011;8008;50.024;8.172;2023-08-20T17:38:53;4.85;;;4.38;;
15814;SDS011;8008;50.024;8.172;2023-08-20T17:41:22;4.63;;;4.22;;
15814;SDS011;8008;50.024;8.172;2023-08-20T17:43:50;4.50;;;4.10;;
15814;SDS011;8008;50.024;8.172;2023-08-20T17:46:18;4.72;;;4.20;;
15814;SDS011;8008;50.024;8.172;2023-08-20T17:48:46;4.45;;;4.05;;
15814;SDS011;8008;50.024;8.172;2023-08-20T17:51:14;5.13;;;4.07;;
15814;SDS011;8008;50.024;8.172;2023-08-20T17:53:42;4.43;;;4.03;;
15814;SDS011;8008;50.024;8.172;2023-08-20T17:56:10;5.55;;;4.57;;
15814;SDS011;8008;50.024;8.172;2023-08-20T17:58:39;5.72;;;4.47;;
15814;SDS011;8008;50.024;8.172;2023-08-20T18:01:07;6.82;;;4.28;;
15814;SDS011;8008;50.024;8.172;2023-08-20T18:03:35;4.57;;;4.07;;
15814;SDS011;8008;50.024;8.172;2023-08-20T18:06:02;6.18;;;4.65;;
15814;SDS011;8008;50.024;8.172;2023-08-20T18:08:30;5.93;;;4.10;;
15814;SDS011;8008;50.024;8.172;2023-08-20T18:10:58;5.90;;;4.13;;
15814;SDS011;8008;50.024;8.172;2023-08-20T18:13:26;4.45;;;4.00;;
15814;SDS011;8008;50.024;8.172;2023-08-20T18:15:55;4.95;;;3.90;;